Terminal Aerodrome Forecast
Issued by NWS

Home | Current Version | Previous Version | Text Only | Print | Product List | Glossary On
Versions: 1 2 3 4 5 6 7 8 9 10 11 12 13 14 15 16 17 18
000
FTUS43 KDLH 171736 AAA
TAFHIB
TAF AMD
KHIB 171736Z 1718/1818 19012G22KT P6SM VCSH SCT070
     FM172100 20011G20KT P6SM -SHRA BKN060
      TEMPO 1722/1724 4SM -TSRA OVC025CB
     FM180000 20008KT P6SM SHRA OVC050
      TEMPO 1800/1803 4SM -TSRA OVC025CB
     FM180300 18006KT P6SM SHRA VCTS OVC090CB
     FM180900 VRB03KT 5SM BR VCTS BKN025CB
     FM181000 VRB03KT 6SM BR BKN030=

USA.gov is the U.S. government's official web portal to all federal, state and local government web resources and services.